Time;durP1;ratioP1;P1;durP2;ratioP2;P2;SDS_P1;SDS_P2;PMS_P1;PMS_P2;Temp;Humidity;BMP_temperature;BMP_pressure;BME280_temperature;BME280_humidity;BME280_pressure;Samples;Min_cycle;Max_cycle;Signal;HPM_P1;HPM_P2
2020/01/07 00:02:04;;;;;;;20.9;16.5;;;;;;;0.96;74.88086;968.5262;;;;
2020/01/07 00:04:29;;;;;;;20.1;15.7;;;;;;;0.98;74.91895;968.5265;;;;
2020/01/07 00:06:54;;;;;;;22.3;17.2;;;;;;;0.92;74.16406;968.5109;;;;
2020/01/07 00:09:19;;;;;;;22.2;15.6;;;;;;;0.83;74.44531;968.5076;;;;
2020/01/07 00:11:44;;;;;;;21.7;16.8;;;;;;;0.79;74.24316;968.528;;;;
2020/01/07 00:14:09;;;;;;;22.6;15.9;;;;;;;0.9;73.93066;968.5162;;;;
2020/01/07 00:16:34;;;;;;;19.5;15.2;;;;;;;0.93;73.65039;968.4459;;;;
2020/01/07 00:19:07;;;;;;;20.1;15.3;;;;;;;0.91;73.58887;968.435;;;;
2020/01/07 00:21:25;;;;;;;21.6;16.6;;;;;;;0.93;73.07715;968.5405;;;;
2020/01/07 00:23:50;;;;;;;22.7;16.4;;;;;;;0.83;73.01465;968.603;;;;
2020/01/07 00:26:15;;;;;;;23.6;16.6;;;;;;;0.86;73.51074;968.6116;;;;
2020/01/07 00:28:40;;;;;;;24.2;17;;;;;;;0.79;73.86523;968.5092;;;;
2020/01/07 00:31:05;;;;;;;28.6;18.5;;;;;;;0.68;73.44531;968.468;;;;
2020/01/07 00:33:30;;;;;;;31;20.8;;;;;;;0.75;73.99609;968.467;;;;
2020/01/07 00:35:55;;;;;;;35.7;21.6;;;;;;;0.72;73.87695;968.4216;;;;
2020/01/07 00:38:20;;;;;;;35.2;22.9;;;;;;;0.66;74.15234;968.4645;;;;
2020/01/07 00:40:45;;;;;;;36.5;22.7;;;;;;;0.75;73.89258;968.5623;;;;
2020/01/07 00:43:10;;;;;;;36.4;22.1;;;;;;;0.63;73.91895;968.5692;;;;
2020/01/07 00:45:35;;;;;;;37.7;22.8;;;;;;;0.6;74.22168;968.569;;;;
2020/01/07 00:48:01;;;;;;;36.8;23.8;;;;;;;0.79;73.71582;968.6361;;;;
2020/01/07 00:50:26;;;;;;;37.1;24.4;;;;;;;0.54;74.58887;968.6298;;;;
2020/01/07 00:52:51;;;;;;;35.5;23.4;;;;;;;0.55;74.2793;968.5442;;;;
2020/01/07 00:55:16;;;;;;;28.9;20.7;;;;;;;0.59;74.30078;968.4946;;;;
2020/01/07 00:57:41;;;;;;;23.7;17.6;;;;;;;0.57;74.36426;968.5588;;;;
2020/01/07 01:00:06;;;;;;;29.6;20.4;;;;;;;0.44;75.31445;968.5892;;;;
2020/01/07 01:03:00;;;;;;;25.9;18.6;;;;;;;0.41;75.25391;968.5786;;;;
2020/01/07 01:04:56;;;;;;;28.6;19.9;;;;;;;0.47;74.75;968.5662;;;;
2020/01/07 01:07:21;;;;;;;42.6;27.3;;;;;;;0.48;75.07031;968.555;;;;
2020/01/07 01:09:46;;;;;;;36.5;23.4;;;;;;;0.55;74.72754;968.5433;;;;
2020/01/07 01:12:11;;;;;;;98;49.6;;;;;;;0.6;74.51758;968.5955;;;;
2020/01/07 01:14:36;;;;;;;72.8;40.1;;;;;;;0.58;74.51465;968.5051;;;;
2020/01/07 01:17:01;;;;;;;64.2;35.2;;;;;;;0.54;73.74121;968.6139;;;;
2020/01/07 01:19:26;;;;;;;57.2;32.4;;;;;;;0.47;74.11816;968.6792;;;;
2020/01/07 01:21:51;;;;;;;51;28.8;;;;;;;0.49;73.6084;968.7146;;;;
2020/01/07 01:24:16;;;;;;;47.3;27.1;;;;;;;0.53;73.83203;968.7936;;;;
2020/01/07 01:26:41;;;;;;;47.2;28;;;;;;;0.54;73.9248;968.8076;;;;
2020/01/07 01:29:07;;;;;;;41;25.1;;;;;;;0.52;73.19922;968.772;;;;
2020/01/07 01:33:57;;;;;;;44.4;26.1;;;;;;;0.56;73.56152;968.8402;;;;
2020/01/07 01:36:22;;;;;;;44.6;25.5;;;;;;;0.53;73.46387;968.9016;;;;
2020/01/07 01:38:47;;;;;;;33.7;21.3;;;;;;;0.58;73.49707;968.8797;;;;
2020/01/07 01:41:12;;;;;;;28.3;19.5;;;;;;;0.57;73.72363;968.9559;;;;
2020/01/07 01:43:37;;;;;;;23.3;16.5;;;;;;;0.61;74.29102;968.8808;;;;
2020/01/07 01:46:02;;;;;;;31.6;20.2;;;;;;;0.47;73.3291;968.7184;;;;
2020/01/07 01:48:27;;;;;;;31.6;21.6;;;;;;;0.3;73.98633;968.7141;;;;
2020/01/07 01:50:52;;;;;;;32.5;21.1;;;;;;;0.33;73.60156;968.6944;;;;
2020/01/07 01:53:18;;;;;;;28.9;19.6;;;;;;;0.3;73.87012;968.5366;;;;
2020/01/07 01:55:43;;;;;;;26.9;18.5;;;;;;;0.26;73.88672;968.6052;;;;
2020/01/07 01:58:08;;;;;;;28.7;20;;;;;;;0.36;73.99707;968.6186;;;;
2020/01/07 02:00:33;;;;;;;29.3;19.5;;;;;;;0.21;74.40527;968.5394;;;;
2020/01/07 02:02:58;;;;;;;26.8;18.4;;;;;;;0.31;73.78027;968.6514;;;;
2020/01/07 02:05:23;;;;;;;27.3;18.5;;;;;;;0.3;74.35059;968.4949;;;;
2020/01/07 02:07:48;;;;;;;22.2;16.2;;;;;;;0.29;74.7168;968.6334;;;;
2020/01/07 02:10:13;;;;;;;23.7;16.6;;;;;;;0.41;74.10742;968.6395;;;;
2020/01/07 02:12:38;;;;;;;23.9;17.5;;;;;;;0.37;74.41016;968.7297;;;;
2020/01/07 02:15:03;;;;;;;26;17.6;;;;;;;0.42;74.25977;968.6599;;;;
2020/01/07 02:17:28;;;;;;;23.5;17.7;;;;;;;0.23;74.27148;968.6309;;;;
2020/01/07 02:19:53;;;;;;;25;17.8;;;;;;;0.33;74.16113;968.5728;;;;
2020/01/07 02:22:18;;;;;;;27.1;18.1;;;;;;;0.33;74.08203;968.4551;;;;
2020/01/07 02:24:43;;;;;;;21.3;15.7;;;;;;;0.32;74.57324;968.532;;;;
2020/01/07 02:27:08;;;;;;;23.1;16.4;;;;;;;0.31;75.24609;968.6881;;;;
2020/01/07 02:29:34;;;;;;;20.7;15.3;;;;;;;0.46;75.10156;968.616;;;;
2020/01/07 02:31:59;;;;;;;23.5;15.6;;;;;;;0.44;74.74219;968.6741;;;;
2020/01/07 02:34:24;;;;;;;23.1;15.2;;;;;;;0.49;74.64844;968.8046;;;;
2020/01/07 02:36:49;;;;;;;22.7;15.4;;;;;;;0.53;74.3125;968.8176;;;;
2020/01/07 02:39:14;;;;;;;20;14.9;;;;;;;0.49;74.25879;968.7642;;;;
2020/01/07 02:41:39;;;;;;;24.6;15.7;;;;;;;0.41;74.16504;968.7675;;;;
2020/01/07 02:44:04;;;;;;;21.7;14.9;;;;;;;0.42;73.82324;968.7991;;;;
2020/01/07 02:46:29;;;;;;;20.2;14.2;;;;;;;0.45;74.14941;968.774;;;;
2020/01/07 02:48:54;;;;;;;19.2;14.2;;;;;;;0.43;74.64844;968.7629;;;;
2020/01/07 02:51:19;;;;;;;20.6;13.9;;;;;;;0.4;74.3125;968.6795;;;;
2020/01/07 02:53:44;;;;;;;20.1;14.6;;;;;;;0.15;75.29785;968.6157;;;;
2020/01/07 02:56:10;;;;;;;34.6;21.6;;;;;;;0.09;77.19727;968.6533;;;;
2020/01/07 02:58:35;;;;;;;26.2;17.4;;;;;;;0.26;75.93457;968.8667;;;;
2020/01/07 03:01:00;;;;;;;23.4;16.1;;;;;;;0.42;75.46094;968.8959;;;;
2020/01/07 03:03:25;;;;;;;22.5;15.9;;;;;;;0.47;75.04688;968.9295;;;;
2020/01/07 03:05:50;;;;;;;23.4;15.9;;;;;;;0.51;74.32129;969.085;;;;
2020/01/07 03:08:15;;;;;;;24;16.1;;;;;;;0.56;74.58203;969.0731;;;;
2020/01/07 03:10:40;;;;;;;24.7;16.9;;;;;;;0.5;74.26172;969.118;;;;
2020/01/07 03:13:05;;;;;;;24;16.4;;;;;;;0.59;74.02441;969.1583;;;;
2020/01/07 03:15:30;;;;;;;27;17.2;;;;;;;0.61;73.97168;969.2106;;;;
2020/01/07 03:17:56;;;;;;;26.5;17.9;;;;;;;0.72;73.83105;969.2087;;;;
2020/01/07 03:22:47;;;;;;;28.6;18.2;;;;;;;0.73;73.60352;969.2374;;;;
2020/01/07 03:25:11;;;;;;;28.3;17.7;;;;;;;0.73;73.84375;969.3528;;;;
2020/01/07 03:27:36;;;;;;;25.1;16.2;;;;;;;0.7;74.12402;969.3102;;;;
2020/01/07 03:30:01;;;;;;;24;16.7;;;;;;;0.77;73.97656;969.3536;;;;
2020/01/07 03:32:26;;;;;;;27;17.6;;;;;;;0.72;73.72656;969.4033;;;;
2020/01/07 03:34:51;;;;;;;27.6;17.7;;;;;;;0.74;73.9375;969.4055;;;;
2020/01/07 03:37:16;;;;;;;29.2;19;;;;;;;0.77;73.79102;969.4314;;;;
2020/01/07 03:39:41;;;;;;;33.7;19.8;;;;;;;0.81;73.66309;969.4171;;;;
2020/01/07 03:42:06;;;;;;;32.5;20;;;;;;;0.84;73.77051;969.4694;;;;
2020/01/07 03:44:32;;;;;;;40.2;23.2;;;;;;;0.84;73.78223;969.4053;;;;
2020/01/07 03:46:57;;;;;;;54.7;29.4;;;;;;;0.89;73.99805;969.4702;;;;
2020/01/07 03:49:22;;;;;;;45.7;25.7;;;;;;;0.91;73.8291;969.4016;;;;
2020/01/07 03:51:47;;;;;;;51.4;28.3;;;;;;;0.79;73.72754;969.4941;;;;
2020/01/07 03:54:12;;;;;;;46.5;25.5;;;;;;;0.77;74.57227;969.4802;;;;
2020/01/07 03:56:37;;;;;;;46.1;24.6;;;;;;;0.75;74.30566;969.4935;;;;
2020/01/07 03:59:02;;;;;;;44.2;24.4;;;;;;;0.84;74.10352;969.5943;;;;
2020/01/07 04:02:26;;;;;;;44.1;24.2;;;;;;;0.86;74.10742;969.5781;;;;
2020/01/07 04:04:51;;;;;;;42.3;22.8;;;;;;;0.88;73.86914;969.5368;;;;
2020/01/07 04:07:16;;;;;;;40.2;23.8;;;;;;;0.93;73.4541;969.6113;;;;
2020/01/07 04:09:41;;;;;;;42.9;23.4;;;;;;;0.9;73.88477;969.5703;;;;
2020/01/07 04:12:06;;;;;;;40.1;23.5;;;;;;;0.85;73.62207;969.5053;;;;
2020/01/07 04:14:31;;;;;;;41.2;24;;;;;;;0.92;74.0498;969.4905;;;;
2020/01/07 04:16:57;;;;;;;36.4;20.6;;;;;;;1;74.72656;969.4587;;;;
2020/01/07 04:19:22;;;;;;;24.2;15.4;;;;;;;1.1;76.58984;969.5402;;;;
2020/01/07 04:21:47;;;;;;;27.8;17.8;;;;;;;1.21;75.6582;969.4163;;;;
2020/01/07 04:24:12;;;;;;;23.7;15.6;;;;;;;1.25;76.50391;969.3081;;;;
2020/01/07 04:26:37;;;;;;;21.6;12.8;;;;;;;1.48;76.7959;969.4081;;;;
2020/01/07 04:29:02;;;;;;;24;14.9;;;;;;;1.47;75.96777;969.4294;;;;
2020/01/07 04:31:27;;;;;;;16.6;11.8;;;;;;;1.69;75.91699;969.4056;;;;
2020/01/07 04:33:52;;;;;;;15.8;12;;;;;;;1.81;76.66113;969.3439;;;;
2020/01/07 04:36:17;;;;;;;16.6;11.7;;;;;;;1.94;76.22559;969.4589;;;;
2020/01/07 04:38:42;;;;;;;15.5;11;;;;;;;1.98;75.63672;969.4316;;;;
2020/01/07 04:41:07;;;;;;;16.9;12.6;;;;;;;1.96;75.83984;969.4891;;;;
2020/01/07 04:43:32;;;;;;;15.3;11.5;;;;;;;2.01;76.14453;969.455;;;;
2020/01/07 04:45:57;;;;;;;16.6;11.7;;;;;;;2.09;75.99805;969.434;;;;
2020/01/07 04:48:22;;;;;;;17.2;11.4;;;;;;;2.11;76.07324;969.4408;;;;
2020/01/07 04:50:48;;;;;;;17.1;11.6;;;;;;;2.08;75.69922;969.4316;;;;
2020/01/07 04:53:13;;;;;;;14.2;11;;;;;;;2.17;76.00293;969.3664;;;;
2020/01/07 04:55:38;;;;;;;17.1;10.9;;;;;;;2.19;75.61523;969.3517;;;;
2020/01/07 04:58:03;;;;;;;14.8;11;;;;;;;2.19;75.68359;969.3806;;;;
2020/01/07 05:00:29;;;;;;;14.6;11.5;;;;;;;2.28;75.54004;969.4064;;;;
2020/01/07 05:02:54;;;;;;;15.3;10.9;;;;;;;2.26;75.51367;969.4664;;;;
2020/01/07 05:05:19;;;;;;;15.6;11.7;;;;;;;2.24;75.93457;969.4861;;;;
2020/01/07 05:07:44;;;;;;;14.9;11.4;;;;;;;2.18;76.45215;969.5099;;;;
2020/01/07 05:10:09;;;;;;;14.8;11;;;;;;;2.19;76.36328;969.5255;;;;
2020/01/07 05:12:34;;;;;;;16.6;12;;;;;;;2.18;76.48828;969.5154;;;;
2020/01/07 05:14:59;;;;;;;15;11.4;;;;;;;2.11;76.7168;969.582;;;;
2020/01/07 05:17:25;;;;;;;15.6;11.6;;;;;;;2.01;77.84668;969.5576;;;;
2020/01/07 05:19:50;;;;;;;14.7;11.3;;;;;;;2.08;77.95117;969.5195;;;;
2020/01/07 05:22:15;;;;;;;17;11.1;;;;;;;2.17;77.48535;969.5333;;;;
2020/01/07 05:24:40;;;;;;;14.2;10.3;;;;;;;2.23;77.32422;969.572;;;;
2020/01/07 05:27:05;;;;;;;16.2;10.2;;;;;;;2.21;77.61914;969.5742;;;;
2020/01/07 05:29:34;;;;;;;15.3;11;;;;;;;2.28;77.94238;969.4763;;;;
2020/01/07 05:36:45;;;;;;;13.3;9.3;;;;;;;2.43;77.08496;969.6848;;;;
2020/01/07 05:39:10;;;;;;;14.6;10.2;;;;;;;2.41;77.38086;969.6934;;;;
2020/01/07 05:41:35;;;;;;;16.3;10.3;;;;;;;2.48;77.03516;969.7368;;;;
2020/01/07 05:44:00;;;;;;;15;10.9;;;;;;;2.46;77.16016;969.7531;;;;
2020/01/07 05:46:25;;;;;;;14.3;10.6;;;;;;;2.36;77.69141;969.7483;;;;
2020/01/07 05:48:51;;;;;;;19;13.5;;;;;;;2.39;78.58301;969.7137;;;;
2020/01/07 05:51:16;;;;;;;17.2;13.1;;;;;;;2.39;78.57324;969.7194;;;;
2020/01/07 05:53:41;;;;;;;16.7;12.9;;;;;;;2.43;78.90137;969.7434;;;;
2020/01/07 05:56:06;;;;;;;19.2;13.9;;;;;;;2.36;79.70508;969.7241;;;;
2020/01/07 05:58:31;;;;;;;17.6;13.7;;;;;;;2.36;79.96777;969.7764;;;;
2020/01/07 06:00:56;;;;;;;17.7;12.2;;;;;;;2.39;79.84766;969.8591;;;;
2020/01/07 06:03:22;;;;;;;16;11.8;;;;;;;2.49;79.6377;969.8596;;;;
2020/01/07 06:05:47;;;;;;;17.2;11.8;;;;;;;2.51;79.22754;969.9175;;;;
2020/01/07 06:08:12;;;;;;;14.7;10.7;;;;;;;2.59;78.49414;969.9036;;;;
2020/01/07 06:10:37;;;;;;;15.6;10.4;;;;;;;2.7;77.90332;969.9694;;;;
2020/01/07 06:13:02;;;;;;;13.5;10.7;;;;;;;2.8;77.26563;970.0111;;;;
2020/01/07 06:15:27;;;;;;;12.4;9.5;;;;;;;2.98;75.84863;970.13;;;;
2020/01/07 06:17:52;;;;;;;14.5;10.2;;;;;;;3.07;76.07129;970.142;;;;
2020/01/07 06:20:18;;;;;;;14.5;10.4;;;;;;;3.14;75.57715;970.2335;;;;
2020/01/07 06:22:43;;;;;;;11.7;9.3;;;;;;;3.2;75.00195;970.2739;;;;
2020/01/07 06:25:28;;;;;;;10.7;8.8;;;;;;;3.31;74.3623;970.3091;;;;
2020/01/07 06:27:53;;;;;;;13.2;9.2;;;;;;;3.4;74.17188;970.3627;;;;
2020/01/07 06:30:18;;;;;;;13.9;9.7;;;;;;;3.47;74.12598;970.3975;;;;
2020/01/07 06:32:43;;;;;;;12.1;9.3;;;;;;;3.57;73.93555;970.4045;;;;
2020/01/07 06:35:08;;;;;;;12.2;9.4;;;;;;;3.65;73.45313;970.3798;;;;
2020/01/07 06:37:34;;;;;;;12.3;9.4;;;;;;;3.73;73.09961;970.3326;;;;
2020/01/07 06:39:59;;;;;;;13.4;9.3;;;;;;;3.81;72.97461;970.2288;;;;
2020/01/07 06:42:24;;;;;;;11.7;8.7;;;;;;;3.91;71.96387;970.2287;;;;
2020/01/07 06:44:49;;;;;;;11.5;8.9;;;;;;;3.98;71.62988;970.3153;;;;
2020/01/07 06:47:14;;;;;;;12.8;9.6;;;;;;;4.03;72.23926;970.4073;;;;
2020/01/07 06:49:39;;;;;;;14.9;9.4;;;;;;;4.07;71.93262;970.478;;;;
2020/01/07 06:52:05;;;;;;;13.4;9.2;;;;;;;4.1;72.01953;970.6074;;;;
2020/01/07 06:54:30;;;;;;;14.2;9.8;;;;;;;4.14;72.67383;970.6458;;;;
2020/01/07 06:56:55;;;;;;;14.5;10.3;;;;;;;4.14;72.62598;970.7095;;;;
2020/01/07 06:59:20;;;;;;;13.7;10.5;;;;;;;4.16;73.23145;970.7916;;;;
2020/01/07 07:01:45;;;;;;;14.5;10.3;;;;;;;4.14;73.63184;970.8365;;;;
2020/01/07 07:04:10;;;;;;;12.8;10.3;;;;;;;4.13;74.79688;970.9325;;;;
2020/01/07 07:06:35;;;;;;;14.3;10.2;;;;;;;4.12;74.97852;971.0222;;;;
2020/01/07 07:09:00;;;;;;;14.2;11.3;;;;;;;3.98;75.66895;971.0228;;;;
2020/01/07 07:11:25;;;;;;;15;10.7;;;;;;;3.96;75.37793;971.1256;;;;
2020/01/07 07:13:51;;;;;;;15;10.4;;;;;;;4.07;76.36621;971.1647;;;;
2020/01/07 07:16:16;;;;;;;15.2;10.3;;;;;;;4.09;76.12695;971.2872;;;;
2020/01/07 07:18:41;;;;;;;15.3;11.4;;;;;;;4.07;75.03809;971.4006;;;;
2020/01/07 07:21:07;;;;;;;15.7;11.2;;;;;;;4.11;74.42285;971.4952;;;;
2020/01/07 07:23:32;;;;;;;14.9;11.2;;;;;;;4.15;74.41699;971.4999;;;;
2020/01/07 07:25:57;;;;;;;14.8;11.7;;;;;;;4.08;74.58008;971.4991;;;;
2020/01/07 07:28:22;;;;;;;17.1;11.8;;;;;;;4.11;74.38867;971.5195;;;;
2020/01/07 07:30:47;;;;;;;16.7;12.2;;;;;;;4.11;73.96094;971.5178;;;;
2020/01/07 07:33:12;;;;;;;18.4;12.7;;;;;;;4.14;73.80566;971.6031;;;;
2020/01/07 07:35:37;;;;;;;17.1;12.6;;;;;;;4.18;73.86816;971.6166;;;;
2020/01/07 07:38:02;;;;;;;16.6;12.8;;;;;;;4.2;74.05664;971.657;;;;
2020/01/07 07:40:27;;;;;;;17;12.4;;;;;;;4.22;74.02734;971.6453;;;;
2020/01/07 07:42:52;;;;;;;15.5;12.5;;;;;;;4.21;74.52051;971.6794;;;;
2020/01/07 07:45:17;;;;;;;15.5;12.7;;;;;;;4.19;75.19727;971.788;;;;
2020/01/07 07:47:43;;;;;;;18.6;12.7;;;;;;;4.2;75.74316;971.8333;;;;
2020/01/07 07:50:08;;;;;;;19.8;13.7;;;;;;;4.19;76.63086;971.8975;;;;
2020/01/07 07:52:33;;;;;;;20.4;14.2;;;;;;;4.16;77.26074;971.9383;;;;
2020/01/07 07:54:58;;;;;;;19.3;14.3;;;;;;;4.21;77.52344;971.9266;;;;
2020/01/07 07:57:23;;;;;;;20;14;;;;;;;4.23;78.05762;971.8586;;;;
2020/01/07 07:59:48;;;;;;;20.4;14;;;;;;;4.22;78.41602;971.8547;;;;
2020/01/07 08:04:49;;;;;;;20.1;15.2;;;;;;;4.18;79.67773;971.8751;;;;
2020/01/07 08:07:09;;;;;;;22.9;15.7;;;;;;;4.17;80.07813;971.9044;;;;
2020/01/07 08:09:29;;;;;;;22.5;15.5;;;;;;;4.15;80.58301;971.9089;;;;
2020/01/07 08:12:01;;;;;;;23.5;16.4;;;;;;;4.08;81.15918;971.9789;;;;
2020/01/07 08:14:19;;;;;;;24.2;17;;;;;;;4.14;81.22949;971.9622;;;;
2020/01/07 08:16:44;;;;;;;24.2;16.1;;;;;;;4.15;81.42578;972.0506;;;;
2020/01/07 08:19:09;;;;;;;26.7;18.3;;;;;;;4.18;81.49023;972.0514;;;;
2020/01/07 08:21:34;;;;;;;26.9;18.7;;;;;;;4.22;81.54492;972.1293;;;;
2020/01/07 08:23:59;;;;;;;25.1;18.1;;;;;;;4.28;81.41699;972.1743;;;;
2020/01/07 08:26:25;;;;;;;25.8;18.5;;;;;;;4.28;81.53223;972.1889;;;;
2020/01/07 08:28:50;;;;;;;30.3;20.1;;;;;;;4.29;81.53223;972.2894;;;;
2020/01/07 08:31:15;;;;;;;28;18.7;;;;;;;4.26;81.4707;972.2684;;;;
2020/01/07 08:33:40;;;;;;;26.9;19.4;;;;;;;4.36;81.05078;972.17;;;;
2020/01/07 08:36:05;;;;;;;27;19;;;;;;;4.49;80.41895;972.2258;;;;
2020/01/07 08:38:30;;;;;;;25.9;18.7;;;;;;;4.55;80.35938;972.2438;;;;
2020/01/07 08:40:55;;;;;;;30.5;20.5;;;;;;;4.7;79.86523;972.3204;;;;
2020/01/07 08:43:20;;;;;;;26.2;19.5;;;;;;;4.69;79.68066;972.3906;;;;
2020/01/07 08:45:45;;;;;;;28;20.3;;;;;;;4.78;79.4082;972.4075;;;;
2020/01/07 08:48:11;;;;;;;28.5;20;;;;;;;4.79;79.29395;972.4227;;;;
2020/01/07 08:50:36;;;;;;;28.7;20.7;;;;;;;4.85;79.09766;972.4533;;;;
2020/01/07 08:53:01;;;;;;;28.9;20;;;;;;;4.86;79.08691;972.5159;;;;
2020/01/07 08:55:26;;;;;;;26.9;19.5;;;;;;;4.91;78.86621;972.5876;;;;
2020/01/07 08:57:51;;;;;;;26.2;19.4;;;;;;;4.84;79.08203;972.675;;;;
2020/01/07 09:00:16;;;;;;;26.2;18.9;;;;;;;4.87;78.88086;972.6863;;;;
2020/01/07 09:02:46;;;;;;;27.4;19.5;;;;;;;4.82;79.11426;972.6838;;;;
2020/01/07 09:05:11;;;;;;;25.2;19.2;;;;;;;4.89;79.11523;972.7014;;;;
2020/01/07 09:07:36;;;;;;;25.4;19.3;;;;;;;4.87;79.13379;972.7424;;;;
2020/01/07 09:10:01;;;;;;;25;19;;;;;;;4.96;78.9082;972.7993;;;;
2020/01/07 09:12:26;;;;;;;25.4;19.3;;;;;;;5.01;78.88477;972.8052;;;;
2020/01/07 09:14:51;;;;;;;28.3;19.3;;;;;;;5.06;78.56738;972.8452;;;;
2020/01/07 09:17:16;;;;;;;25.5;19;;;;;;;5.05;78.77637;972.9147;;;;
2020/01/07 09:19:41;;;;;;;25.6;19.2;;;;;;;5.06;78.68359;972.933;;;;
2020/01/07 09:22:07;;;;;;;25.1;18.4;;;;;;;5.07;78.62891;972.9421;;;;
2020/01/07 09:24:32;;;;;;;26;19;;;;;;;5.08;78.87305;972.9726;;;;
2020/01/07 09:26:57;;;;;;;26;19.6;;;;;;;5.12;78.66016;973.0352;;;;
2020/01/07 09:29:22;;;;;;;28.4;19.4;;;;;;;5.16;78.7373;973.0592;;;;
2020/01/07 09:31:47;;;;;;;26.9;18.9;;;;;;;5.1;78.7627;973.0831;;;;
2020/01/07 09:34:12;;;;;;;26.7;19.8;;;;;;;5.17;78.72559;973.0831;;;;
2020/01/07 09:36:37;;;;;;;25.4;18.6;;;;;;;5.12;78.89355;973.0803;;;;
2020/01/07 09:39:03;;;;;;;26.9;19;;;;;;;5.22;78.55176;973.0217;;;;
2020/01/07 09:41:27;;;;;;;25;18.5;;;;;;;5.22;78.59863;973.0339;;;;
2020/01/07 09:43:53;;;;;;;25.4;18.3;;;;;;;5.25;78.74414;973.0555;;;;
2020/01/07 09:46:18;;;;;;;25.5;18.4;;;;;;;5.24;78.78906;973.1005;;;;
2020/01/07 09:48:43;;;;;;;24.9;18;;;;;;;5.17;79.10938;973.0799;;;;
2020/01/07 09:51:08;;;;;;;24.6;18;;;;;;;5.31;78.77637;973.0773;;;;
2020/01/07 09:53:40;;;;;;;23.7;17.1;;;;;;;5.41;78.25;973.0414;;;;
2020/01/07 09:56:27;;;;;;;22.9;17.4;;;;;;;5.43;78.0918;973.0669;;;;
2020/01/07 10:03:15;;;;;;;22.4;16.4;;;;;;;5.57;77.8291;973.0497;;;;
2020/01/07 10:05:38;;;;;;;24.1;16.4;;;;;;;5.53;77.95996;973.1267;;;;
2020/01/07 10:08:03;;;;;;;22.5;16.6;;;;;;;5.58;77.44727;973.1003;;;;
2020/01/07 10:10:29;;;;;;;20.3;15.7;;;;;;;5.6;77.56738;973.0867;;;;
2020/01/07 10:12:54;;;;;;;21.1;15.9;;;;;;;5.63;77.3418;973.0446;;;;
2020/01/07 10:15:19;;;;;;;22.2;16.8;;;;;;;5.76;77.01855;973.0762;;;;
2020/01/07 10:17:44;;;;;;;23.3;16.6;;;;;;;5.82;76.90039;973.1147;;;;
2020/01/07 10:20:09;;;;;;;20.5;15.6;;;;;;;5.83;76.92676;973.0966;;;;
2020/01/07 10:22:34;;;;;;;20.8;15.9;;;;;;;5.92;76.61816;973.1177;;;;
2020/01/07 10:24:59;;;;;;;20.2;15.3;;;;;;;5.93;76.81641;973.1317;;;;
2020/01/07 10:27:24;;;;;;;23.8;16.4;;;;;;;6.11;76.29102;973.1337;;;;
2020/01/07 10:29:50;;;;;;;20.3;15.5;;;;;;;6.19;75.94531;973.1425;;;;
2020/01/07 10:32:15;;;;;;;21;15.2;;;;;;;6.22;75.74121;973.1536;;;;
2020/01/07 10:34:40;;;;;;;20.6;15;;;;;;;6.34;75.52148;973.1457;;;;
2020/01/07 10:37:05;;;;;;;19.9;14.5;;;;;;;6.33;75.32031;973.15;;;;
2020/01/07 10:39:30;;;;;;;19.6;15.2;;;;;;;6.33;75.61133;973.1531;;;;
2020/01/07 10:41:55;;;;;;;20.8;14.7;;;;;;;6.28;75.6709;973.0966;;;;
2020/01/07 10:44:20;;;;;;;19.9;15.2;;;;;;;6.31;75.63086;973.1141;;;;
2020/01/07 10:46:46;;;;;;;20.8;14.8;;;;;;;6.26;75.66797;973.0981;;;;
2020/01/07 10:49:11;;;;;;;18.7;14.1;;;;;;;6.27;75.74121;973.1686;;;;
2020/01/07 10:51:36;;;;;;;21.3;14.9;;;;;;;6.31;75.43359;973.1342;;;;
2020/01/07 10:54:01;;;;;;;19.5;14.9;;;;;;;6.32;75.79492;973.1429;;;;
2020/01/07 10:56:26;;;;;;;19.6;14.4;;;;;;;6.33;75.75977;973.1816;;;;
2020/01/07 10:58:51;;;;;;;19.3;14.8;;;;;;;6.25;75.67773;973.2252;;;;
2020/01/07 11:02:34;;;;;;;19.2;14.3;;;;;;;6.19;75.62109;973.2378;;;;
2020/01/07 11:04:59;;;;;;;17.6;13.1;;;;;;;6.2;75.72852;973.1887;;;;
2020/01/07 11:07:24;;;;;;;18.1;14.2;;;;;;;6.22;75.71875;973.228;;;;
2020/01/07 11:09:49;;;;;;;19.2;13.8;;;;;;;6.17;76.03418;973.2908;;;;
2020/01/07 11:12:14;;;;;;;18.3;13.8;;;;;;;6.11;76.18652;973.2508;;;;
2020/01/07 11:14:39;;;;;;;19.1;14.2;;;;;;;6.21;75.91406;973.2169;;;;
2020/01/07 11:17:04;;;;;;;19.1;13.6;;;;;;;6.15;76.00879;973.2036;;;;
2020/01/07 11:19:29;;;;;;;18.4;14;;;;;;;6.13;76.24805;973.2241;;;;
2020/01/07 11:21:54;;;;;;;18.5;13.8;;;;;;;6.17;76.10547;973.248;;;;
2020/01/07 11:24:20;;;;;;;18.2;13.8;;;;;;;6.14;76.04102;973.2313;;;;
2020/01/07 11:26:45;;;;;;;19.4;14;;;;;;;6.11;75.93164;973.2492;;;;
2020/01/07 11:29:10;;;;;;;18.7;13.6;;;;;;;6.17;75.58105;973.2375;;;;
2020/01/07 11:31:35;;;;;;;17.5;13.9;;;;;;;6.25;75.4707;973.2179;;;;
2020/01/07 11:34:00;;;;;;;17.9;13.4;;;;;;;6.21;75.77441;973.204;;;;
2020/01/07 11:36:25;;;;;;;19.3;13.8;;;;;;;6.21;75.62402;973.199;;;;
2020/01/07 11:38:50;;;;;;;17.3;13.7;;;;;;;6.23;75.37305;973.1615;;;;
2020/01/07 11:41:15;;;;;;;19.5;14.3;;;;;;;6.26;75.50684;973.2153;;;;
2020/01/07 11:43:40;;;;;;;18.9;13.7;;;;;;;6.26;75.34277;973.1992;;;;
2020/01/07 11:46:05;;;;;;;19.1;13.9;;;;;;;6.35;74.92969;973.1696;;;;
2020/01/07 11:48:30;;;;;;;19.8;14.4;;;;;;;6.38;74.93359;973.1704;;;;
2020/01/07 11:50:56;;;;;;;18.8;13.7;;;;;;;6.41;74.90527;973.1838;;;;
2020/01/07 11:53:29;;;;;;;19;13.7;;;;;;;6.55;76.26563;973.2219;;;;
2020/01/07 11:55:51;;;;;;;18.2;13.4;;;;;;;6.49;74.55957;973.2483;;;;
2020/01/07 12:03:09;;;;;;;17.8;13.1;;;;;;;6.48;74.60547;973.1708;;;;
2020/01/07 12:05:29;;;;;;;17;12.7;;;;;;;6.46;74.78711;973.228;;;;
2020/01/07 12:07:51;;;;;;;16.7;12.5;;;;;;;6.36;74.91895;973.2081;;;;
2020/01/07 12:10:16;;;;;;;17.4;12.6;;;;;;;6.37;74.94531;973.2223;;;;
2020/01/07 12:12:41;;;;;;;15.6;12.2;;;;;;;6.38;74.92188;973.2253;;;;
2020/01/07 12:15:06;;;;;;;17.6;12.4;;;;;;;6.3;75.08203;973.2836;;;;
2020/01/07 12:17:32;;;;;;;16.9;12.8;;;;;;;6.31;75.22461;973.3444;;;;
2020/01/07 12:19:57;;;;;;;17.3;12.4;;;;;;;6.34;75.16016;973.3259;;;;
2020/01/07 12:22:22;;;;;;;17.3;12.3;;;;;;;6.39;74.83203;973.2821;;;;
2020/01/07 12:24:47;;;;;;;16.8;12.4;;;;;;;6.38;75.24902;973.321;;;;
2020/01/07 12:27:12;;;;;;;16.3;11.8;;;;;;;6.4;74.93848;973.2505;;;;
2020/01/07 12:29:37;;;;;;;15.5;11.9;;;;;;;6.49;74.78125;973.2531;;;;
2020/01/07 12:32:03;;;;;;;16.7;12;;;;;;;6.47;74.77539;973.2756;;;;
2020/01/07 12:34:28;;;;;;;15.9;11.7;;;;;;;6.54;74.56836;973.3013;;;;
2020/01/07 12:36:53;;;;;;;15.9;11.6;;;;;;;6.59;74.4834;973.2563;;;;
2020/01/07 12:39:18;;;;;;;15.8;11.9;;;;;;;6.61;74.42969;973.2452;;;;
2020/01/07 12:41:43;;;;;;;14.9;11.4;;;;;;;6.58;74.34375;973.25;;;;
2020/01/07 12:44:08;;;;;;;15.2;11.4;;;;;;;6.51;74.67969;973.2983;;;;
2020/01/07 12:46:33;;;;;;;15.8;11.2;;;;;;;6.43;75.18848;973.2452;;;;
2020/01/07 12:48:58;;;;;;;16;11.5;;;;;;;6.47;75.06641;973.2908;;;;
2020/01/07 12:51:23;;;;;;;14.9;11.6;;;;;;;6.51;75.16797;973.2921;;;;
2020/01/07 12:53:49;;;;;;;14.9;11.4;;;;;;;6.55;74.99902;973.3134;;;;
2020/01/07 12:56:14;;;;;;;16;10.4;;;;;;;6.49;75.08203;973.2913;;;;
2020/01/07 12:58:39;;;;;;;14.8;10.6;;;;;;;6.46;75.19336;973.3492;;;;
2020/01/07 13:01:04;;;;;;;14.5;10.6;;;;;;;6.52;74.91406;973.3175;;;;
2020/01/07 13:03:29;;;;;;;14.2;9.9;;;;;;;6.47;74.94043;973.3328;;;;
2020/01/07 13:05:54;;;;;;;12.5;9.5;;;;;;;6.51;74.85352;973.3783;;;;
2020/01/07 13:08:20;;;;;;;11.2;8.8;;;;;;;6.5;74.68848;973.3398;;;;
2020/01/07 13:10:45;;;;;;;10.5;8.5;;;;;;;6.4;74.90332;973.3594;;;;
2020/01/07 13:13:10;;;;;;;12.8;8.7;;;;;;;6.45;74.86621;973.3441;;;;
2020/01/07 13:15:35;;;;;;;12.8;8.6;;;;;;;6.51;74.70313;973.351;;;;
2020/01/07 13:18:00;;;;;;;8.9;7.6;;;;;;;6.48;74.42969;973.3666;;;;
2020/01/07 13:20:25;;;;;;;12.2;8.1;;;;;;;6.5;74.73633;973.3617;;;;
2020/01/07 13:22:51;;;;;;;11.5;8.1;;;;;;;6.56;74.29395;973.3889;;;;
2020/01/07 13:25:16;;;;;;;10.3;7.8;;;;;;;6.6;74.00977;973.3876;;;;
2020/01/07 13:27:41;;;;;;;9.6;7.7;;;;;;;6.59;74.06641;973.4366;;;;
2020/01/07 13:30:06;;;;;;;11.5;8.1;;;;;;;6.63;73.83887;973.4167;;;;
2020/01/07 13:32:31;;;;;;;10.4;8.2;;;;;;;6.66;73.91602;973.4414;;;;
2020/01/07 13:34:56;;;;;;;11.6;7.5;;;;;;;6.73;73.40527;973.4755;;;;
2020/01/07 13:37:22;;;;;;;12.4;8.4;;;;;;;6.71;73.44727;973.5126;;;;
2020/01/07 13:39:47;;;;;;;10.9;7.9;;;;;;;6.77;73.19043;973.4556;;;;
2020/01/07 13:42:12;;;;;;;10.8;8;;;;;;;6.78;73.35645;973.4827;;;;
2020/01/07 13:44:37;;;;;;;11.1;7.9;;;;;;;6.81;73.07031;973.4525;;;;
2020/01/07 13:47:02;;;;;;;13.8;8.4;;;;;;;6.81;73.37305;973.5204;;;;
2020/01/07 13:49:27;;;;;;;10.6;7.8;;;;;;;6.83;73.09473;973.4691;;;;
2020/01/07 13:51:53;;;;;;;9.1;7;;;;;;;6.82;72.99023;973.5089;;;;
2020/01/07 13:54:18;;;;;;;8.7;7;;;;;;;6.79;73.00781;973.5165;;;;
2020/01/07 13:56:43;;;;;;;10.2;6.8;;;;;;;6.71;73.35645;973.5424;;;;
2020/01/07 13:59:08;;;;;;;9.2;6.5;;;;;;;6.73;73.38184;973.5717;;;;
2020/01/07 14:01:33;;;;;;;9.9;6.9;;;;;;;6.74;73.5332;973.6046;;;;
2020/01/07 14:03:58;;;;;;;10.1;7.3;;;;;;;6.77;73.43457;973.6058;;;;
2020/01/07 14:06:24;;;;;;;8.5;6.6;;;;;;;6.76;73.1543;973.6553;;;;
2020/01/07 14:08:49;;;;;;;9.4;6.3;;;;;;;6.79;73.25195;973.649;;;;
2020/01/07 14:11:14;;;;;;;9.2;6.7;;;;;;;6.76;72.98047;973.6813;;;;
2020/01/07 14:13:39;;;;;;;8.3;6.3;;;;;;;6.81;72.89648;973.6726;;;;
2020/01/07 14:16:34;;;;;;;8.6;6;;;;;;;6.83;72.94434;973.7505;;;;
2020/01/07 14:21:05;;;;;;;8.3;6.2;;;;;;;6.82;73.03711;973.7539;;;;
2020/01/07 14:23:28;;;;;;;8.9;6.2;;;;;;;6.85;72.92578;973.752;;;;
2020/01/07 14:25:51;;;;;;;8.2;5.9;;;;;;;6.89;72.45801;973.8121;;;;
2020/01/07 14:28:10;;;;;;;10.2;6.5;;;;;;;6.9;72.63184;973.7957;;;;
2020/01/07 14:30:35;;;;;;;7.5;5.9;;;;;;;6.95;72.4668;973.8423;;;;